createdAt,value
2022-11-10T00:04:41.322Z,2.20
2022-11-10T00:10:21.903Z,2.00
2022-11-10T00:16:23.859Z,2.10
2022-11-10T00:22:04.833Z,1.90
2022-11-10T00:27:45.717Z,1.70
2022-11-10T00:33:26.679Z,1.77
2022-11-10T00:39:07.706Z,1.93
2022-11-10T00:44:48.467Z,1.63
2022-11-10T00:50:29.206Z,1.60
2022-11-10T00:56:10.177Z,1.87
2022-11-10T01:01:51.159Z,1.93
2022-11-10T01:07:32.278Z,1.87
2022-11-10T01:13:13.004Z,1.60
2022-11-10T01:19:00.649Z,1.87
2022-11-10T01:24:41.164Z,1.73
2022-11-10T01:30:22.071Z,1.60
2022-11-10T01:36:03.834Z,1.70
2022-11-10T01:41:44.631Z,2.07
2022-11-10T01:47:25.214Z,1.97
2022-11-10T01:53:11.493Z,1.70
2022-11-10T01:58:57.081Z,1.97
2022-11-10T02:04:38.916Z,1.63
2022-11-10T02:10:20.798Z,1.50
2022-11-10T02:16:01.969Z,1.70
2022-11-10T02:21:42.892Z,1.73
2022-11-10T02:27:23.660Z,1.63
2022-11-10T02:33:04.751Z,1.70
2022-11-10T02:38:45.652Z,1.40
2022-11-10T02:44:26.498Z,1.67
2022-11-10T02:50:07.774Z,1.50
2022-11-10T02:55:48.803Z,1.60
2022-11-10T03:01:29.570Z,1.50
2022-11-10T03:07:10.912Z,1.80
2022-11-10T03:12:58.879Z,1.50
2022-11-10T03:18:39.756Z,1.80
2022-11-10T03:24:20.485Z,1.63
2022-11-10T03:30:01.001Z,1.60
2022-11-10T03:35:41.768Z,1.93
2022-11-10T03:41:22.989Z,1.83
2022-11-10T03:47:04.104Z,1.70
2022-11-10T03:52:45.882Z,1.90
2022-11-10T03:58:26.539Z,2.67
2022-11-10T04:04:30.604Z,1.77
2022-11-10T04:10:11.589Z,2.00
2022-11-10T04:15:52.467Z,2.10
2022-11-10T04:21:33.342Z,1.73
2022-11-10T04:27:13.980Z,2.27
2022-11-10T04:32:55.167Z,2.13
2022-11-10T04:38:36.263Z,1.97
2022-11-10T04:44:17.023Z,2.03
2022-11-10T04:49:57.600Z,2.10
2022-11-10T04:55:44.338Z,2.60
2022-11-10T05:01:27.760Z,2.20
2022-11-10T05:07:08.524Z,2.43
2022-11-10T05:12:49.370Z,2.10
2022-11-10T05:18:30.051Z,2.20
2022-11-10T05:24:11.029Z,2.10
2022-11-10T05:29:51.742Z,2.07
2022-11-10T05:35:32.765Z,2.00
2022-11-10T05:41:13.657Z,2.43
2022-11-10T05:46:54.925Z,2.73
2022-11-10T05:52:39.531Z,2.50
2022-11-10T05:58:20.205Z,2.33
2022-11-10T06:04:01.704Z,3.10
2022-11-10T06:09:42.646Z,2.50
2022-11-10T06:15:23.778Z,2.40
2022-11-10T06:21:04.976Z,2.30
2022-11-10T06:26:45.745Z,2.30
2022-11-10T06:32:27.008Z,2.23
2022-11-10T06:38:11.240Z,2.37
2022-11-10T06:43:52.650Z,2.10
2022-11-10T06:49:33.843Z,3.03
2022-11-10T06:55:14.823Z,2.83
2022-11-10T07:00:55.527Z,2.40
2022-11-10T07:06:36.678Z,2.47
2022-11-10T07:12:17.824Z,2.47
2022-11-10T07:17:59.039Z,2.50
2022-11-10T07:23:39.923Z,2.47
2022-11-10T07:29:20.643Z,2.70
2022-11-10T07:35:01.312Z,2.47
2022-11-10T07:40:41.982Z,2.90
2022-11-10T07:46:23.557Z,2.63
2022-11-10T07:52:04.860Z,2.30
2022-11-10T07:57:45.606Z,3.33
2022-11-10T08:03:26.396Z,2.87
2022-11-10T08:09:07.557Z,2.87
2022-11-10T08:14:48.886Z,3.20
2022-11-10T08:20:30.788Z,2.90
2022-11-10T08:26:12.151Z,3.27
2022-11-10T08:31:53.306Z,3.60
2022-11-10T08:37:34.359Z,3.00
2022-11-10T08:43:15.923Z,3.10
2022-11-10T08:48:56.901Z,2.97
2022-11-10T08:54:38.050Z,3.33
2022-11-10T09:00:19.084Z,2.90
2022-11-10T09:06:00.575Z,3.30
2022-11-10T09:11:41.345Z,3.40
2022-11-10T09:17:22.075Z,3.30
2022-11-10T09:23:22.505Z,3.50
2022-11-10T09:29:03.747Z,4.20
2022-11-10T09:34:46.632Z,4.00
2022-11-10T09:40:51.165Z,3.73
2022-11-10T09:46:45.074Z,4.07
2022-11-10T09:52:29.730Z,3.10
2022-11-10T09:58:14.926Z,3.43
2022-11-10T10:04:08.588Z,3.77
2022-11-10T10:09:58.471Z,3.13
2022-11-10T10:15:57.470Z,3.20
2022-11-10T10:21:38.596Z,2.97
2022-11-10T10:27:23.874Z,2.73
2022-11-10T10:33:17.304Z,2.47
2022-11-10T10:39:26.119Z,2.47
2022-11-10T10:45:23.999Z,3.03
2022-11-10T10:51:05.659Z,2.97
2022-11-10T10:56:47.079Z,3.07
2022-11-10T11:02:31.478Z,2.60
2022-11-10T11:08:18.333Z,2.90
2022-11-10T11:14:23.041Z,2.77
2022-11-10T11:20:04.217Z,2.37
2022-11-10T11:25:46.337Z,3.07
2022-11-10T11:31:43.483Z,2.80
2022-11-10T11:37:34.900Z,2.90
2022-11-10T11:43:27.626Z,2.57
2022-11-10T11:49:23.617Z,2.93
2022-11-10T11:55:20.859Z,2.23
2022-11-10T12:01:20.113Z,2.37
2022-11-10T12:07:13.463Z,2.77
2022-11-10T12:13:09.690Z,2.03
2022-11-10T12:19:09.170Z,2.00
2022-11-10T12:25:12.218Z,2.00
2022-11-10T12:31:01.780Z,2.30
2022-11-10T12:36:44.734Z,2.23
2022-11-10T12:42:30.084Z,2.10
2022-11-10T12:48:15.961Z,2.30
2022-11-10T12:53:57.158Z,2.70
2022-11-10T12:59:55.154Z,1.97
2022-11-10T13:05:42.089Z,2.37
2022-11-10T13:11:36.990Z,2.20
2022-11-10T13:17:26.577Z,2.03
2022-11-10T13:23:33.769Z,2.03
2022-11-10T13:29:53.857Z,1.60
2022-11-10T13:35:34.656Z,1.53
2022-11-10T13:41:16.735Z,2.10
2022-11-10T13:47:09.733Z,2.23
2022-11-10T13:53:15.958Z,2.50
2022-11-10T13:58:58.133Z,1.90
2022-11-10T14:04:41.069Z,1.93
2022-11-10T14:10:40.139Z,1.80
2022-11-10T14:16:27.150Z,1.93
2022-11-10T14:22:21.801Z,2.10
2022-11-10T14:28:04.051Z,2.03
2022-11-10T14:33:54.138Z,2.00
2022-11-10T14:39:35.675Z,2.30
2022-11-10T14:45:24.140Z,2.57
2022-11-10T14:51:13.893Z,2.80
2022-11-10T14:56:56.879Z,2.30
2022-11-10T15:02:38.329Z,2.00
2022-11-10T15:08:19.670Z,1.93
2022-11-10T15:14:00.877Z,2.43
2022-11-10T15:19:48.617Z,2.00
2022-11-10T15:25:39.125Z,2.10
2022-11-10T15:31:28.620Z,2.50
2022-11-10T15:37:29.109Z,2.70
2022-11-10T15:43:27.055Z,2.27
2022-11-10T15:49:35.878Z,1.70
2022-11-10T15:55:24.349Z,2.27
2022-11-10T16:01:05.453Z,2.20
2022-11-10T16:06:47.367Z,2.33
2022-11-10T16:12:29.288Z,2.20
2022-11-10T16:18:12.848Z,2.40
2022-11-10T16:23:53.903Z,2.13
2022-11-10T16:29:36.448Z,2.30
2022-11-10T16:35:18.511Z,2.40
2022-11-10T16:41:02.754Z,2.30
2022-11-10T16:46:49.509Z,2.70
2022-11-10T16:52:30.582Z,2.80
2022-11-10T16:58:11.918Z,3.10
2022-11-10T17:03:57.076Z,2.60
2022-11-10T17:09:38.469Z,3.47
2022-11-10T17:15:20.015Z,2.70
2022-11-10T17:21:02.353Z,3.40
2022-11-10T17:26:43.791Z,3.23
2022-11-10T17:32:57.627Z,3.97
2022-11-10T17:38:28.846Z,3.47
2022-11-10T17:44:14.490Z,3.20
2022-11-10T17:49:55.290Z,3.43
2022-11-10T17:55:36.993Z,3.13
2022-11-10T18:01:19.824Z,3.43
2022-11-10T18:07:00.636Z,3.50
2022-11-10T18:12:41.810Z,3.30
2022-11-10T18:18:22.323Z,3.40
2022-11-10T18:24:03.350Z,3.50
2022-11-10T18:29:44.249Z,3.20
2022-11-10T18:35:25.238Z,4.13
2022-11-10T18:41:25.686Z,3.80
2022-11-10T18:47:07.977Z,3.67
2022-11-10T18:52:48.954Z,3.60
2022-11-10T18:58:29.579Z,3.87
2022-11-10T19:04:11.749Z,3.10
2022-11-10T19:09:53.140Z,3.07
2022-11-10T19:15:33.827Z,3.37
2022-11-10T19:21:17.583Z,3.70
2022-11-10T19:26:58.398Z,3.73
2022-11-10T19:32:40.005Z,4.03
2022-11-10T19:38:21.473Z,3.60
2022-11-10T19:44:03.356Z,3.20
2022-11-10T19:49:44.813Z,3.53
2022-11-10T19:55:26.523Z,3.47
2022-11-10T20:01:09.023Z,3.80
2022-11-10T20:07:10.395Z,3.00
2022-11-10T20:12:52.248Z,2.77
2022-11-10T20:18:37.331Z,3.03
2022-11-10T20:24:19.664Z,3.47
2022-11-10T20:30:00.650Z,2.90
2022-11-10T20:35:44.121Z,2.80
2022-11-10T20:41:28.665Z,3.17
2022-11-10T20:47:09.825Z,2.57
2022-11-10T20:52:50.878Z,3.80
2022-11-10T20:58:32.091Z,3.13
2022-11-10T21:04:13.640Z,3.13
2022-11-10T21:09:54.559Z,2.93
2022-11-10T21:15:39.414Z,2.40
2022-11-10T21:21:27.998Z,2.10
2022-11-10T21:27:11.242Z,2.63
2022-11-10T21:32:52.290Z,2.37
2022-11-10T21:38:34.560Z,2.77
2022-11-10T21:44:15.601Z,3.00
2022-11-10T21:49:56.495Z,2.80
2022-11-10T21:55:37.319Z,2.40
2022-11-10T22:01:19.348Z,2.90
2022-11-10T22:07:19.352Z,2.17
2022-11-10T22:13:19.158Z,2.40
2022-11-10T22:19:00.377Z,2.50
2022-11-10T22:24:41.522Z,2.60
2022-11-10T22:30:22.323Z,2.60
2022-11-10T22:36:04.743Z,2.13
2022-11-10T22:42:04.459Z,2.53
2022-11-10T22:48:03.816Z,2.37
2022-11-10T22:53:45.051Z,2.43
2022-11-10T22:59:26.172Z,2.80
2022-11-10T23:05:07.379Z,2.50
2022-11-10T23:10:48.522Z,2.43
2022-11-10T23:16:32.382Z,2.27
2022-11-10T23:22:13.387Z,2.80
2022-11-10T23:27:53.851Z,2.47
2022-11-10T23:33:35.738Z,2.80
2022-11-10T23:39:17.124Z,2.83
2022-11-10T23:44:57.951Z,2.40
2022-11-10T23:50:38.871Z,2.80
2022-11-10T23:56:19.482Z,2.57
